createdAt,value
2023-05-05T00:01:16.142Z,8.63
2023-05-05T00:03:37.957Z,9.30
2023-05-05T00:05:59.860Z,8.80
2023-05-05T00:08:22.275Z,8.83
2023-05-05T00:10:52.377Z,8.53
2023-05-05T00:13:15.196Z,9.30
2023-05-05T00:15:38.257Z,9.10
2023-05-05T00:17:59.970Z,8.93
2023-05-05T00:20:22.929Z,8.37
2023-05-05T00:22:44.565Z,9.80
2023-05-05T00:25:07.111Z,8.87
2023-05-05T00:27:28.779Z,9.60
2023-05-05T00:29:50.700Z,9.53
2023-05-05T00:32:12.315Z,10.20
2023-05-05T00:34:34.121Z,9.83
2023-05-05T00:36:55.821Z,10.33
2023-05-05T00:39:17.495Z,10.27
2023-05-05T00:41:39.182Z,10.40
2023-05-05T00:44:00.900Z,10.43
2023-05-05T00:46:26.935Z,10.33
2023-05-05T00:48:48.945Z,11.67
2023-05-05T00:51:10.733Z,10.90
2023-05-05T00:53:33.097Z,10.83
2023-05-05T00:55:55.007Z,11.20
2023-05-05T00:58:18.097Z,11.60
2023-05-05T01:00:40.261Z,11.97
2023-05-05T01:03:02.175Z,11.87
2023-05-05T01:05:27.002Z,11.87
2023-05-05T01:08:22.995Z,11.83
2023-05-05T01:10:53.162Z,12.10
2023-05-05T01:13:31.610Z,11.70
2023-05-05T01:16:27.657Z,12.93
2023-05-05T01:19:03.931Z,12.67
2023-05-05T01:21:41.306Z,13.53
2023-05-05T01:25:03.352Z,13.03
2023-05-05T01:28:00.142Z,13.37
2023-05-05T01:31:08.532Z,13.30
2023-05-05T01:33:43.890Z,12.90
2023-05-05T01:36:22.623Z,13.07
2023-05-05T01:38:46.725Z,14.00
2023-05-05T01:41:19.373Z,12.98
2023-05-05T01:43:45.781Z,13.40
2023-05-05T01:46:08.853Z,13.60
2023-05-05T01:48:33.376Z,13.23
2023-05-05T01:53:20.441Z,12.63
2023-05-05T01:55:43.321Z,12.35
2023-05-05T01:58:07.701Z,12.60
2023-05-05T02:00:31.755Z,12.52
2023-05-05T02:02:59.826Z,12.77
2023-05-05T02:05:24.988Z,12.87
2023-05-05T02:07:47.318Z,12.27
2023-05-05T02:10:13.531Z,12.43
2023-05-05T02:12:37.308Z,12.73
2023-05-05T02:15:02.648Z,11.98
2023-05-05T02:17:27.591Z,13.00
2023-05-05T02:19:52.975Z,12.27
2023-05-05T02:22:16.538Z,11.97
2023-05-05T02:24:38.574Z,12.00
2023-05-05T02:27:06.015Z,11.97
2023-05-05T02:29:48.738Z,11.93
2023-05-05T02:32:20.439Z,12.47
2023-05-05T02:34:46.335Z,12.37
2023-05-05T02:37:19.677Z,11.93
2023-05-05T02:39:51.584Z,12.67
2023-05-05T02:42:21.624Z,12.20
2023-05-05T02:44:46.329Z,11.90
2023-05-05T02:47:09.092Z,12.43
2023-05-05T02:49:31.448Z,11.87
2023-05-05T02:51:55.311Z,11.02
2023-05-05T02:54:21.469Z,11.93
2023-05-05T02:56:49.423Z,11.17
2023-05-05T02:59:53.125Z,11.87
2023-05-05T03:02:31.780Z,11.40
2023-05-05T03:05:02.799Z,11.98
2023-05-05T03:07:31.548Z,10.87
2023-05-05T03:10:09.497Z,11.17
2023-05-05T03:12:58.535Z,11.70
2023-05-05T03:15:41.480Z,11.50
2023-05-05T03:20:26.709Z,10.93
2023-05-05T03:22:50.911Z,12.02
2023-05-05T03:25:13.054Z,11.47
2023-05-05T03:27:35.016Z,11.20
2023-05-05T03:29:57.390Z,11.20
2023-05-05T03:32:20.901Z,12.17
2023-05-05T03:34:42.799Z,11.87
2023-05-05T03:37:04.676Z,11.00
2023-05-05T03:39:26.471Z,12.57
2023-05-05T03:41:49.231Z,11.70
2023-05-05T03:44:13.378Z,11.77
2023-05-05T03:46:35.979Z,12.47
2023-05-05T03:48:58.845Z,11.82
2023-05-05T03:51:22.065Z,10.97
2023-05-05T03:53:43.817Z,10.57
2023-05-05T03:56:05.910Z,11.00
2023-05-05T03:58:27.823Z,10.17
2023-05-05T04:00:49.484Z,9.77
2023-05-05T04:03:12.249Z,10.07
2023-05-05T04:05:34.096Z,10.37
2023-05-05T04:07:57.884Z,9.40
2023-05-05T04:10:20.065Z,10.13
2023-05-05T04:12:41.855Z,9.00
2023-05-05T04:15:04.052Z,8.63
2023-05-05T04:17:26.358Z,8.63
2023-05-05T04:19:48.187Z,7.33
2023-05-05T04:22:09.930Z,7.03
2023-05-05T04:24:31.763Z,7.10
2023-05-05T04:26:54.574Z,6.93
2023-05-05T04:29:16.767Z,6.90
2023-05-05T04:31:38.572Z,7.17
2023-05-05T04:34:00.434Z,6.70
2023-05-05T04:36:22.393Z,6.47
2023-05-05T04:38:44.691Z,6.73
2023-05-05T04:41:06.671Z,7.00
2023-05-05T04:43:29.506Z,7.07
2023-05-05T04:45:55.891Z,7.20
2023-05-05T04:48:21.284Z,7.97
2023-05-05T04:50:42.934Z,7.67
2023-05-05T04:53:04.733Z,8.20
2023-05-05T04:55:26.580Z,8.90
2023-05-05T04:57:48.300Z,8.87
2023-05-05T05:00:11.028Z,8.90
2023-05-05T05:02:33.092Z,8.43
2023-05-05T05:04:54.939Z,8.30
2023-05-05T05:07:16.715Z,9.17
2023-05-05T05:09:38.464Z,8.43
2023-05-05T05:12:03.054Z,8.77
2023-05-05T05:14:24.790Z,9.80
2023-05-05T05:16:51.051Z,11.30
2023-05-05T05:19:14.345Z,10.13
2023-05-05T05:21:36.237Z,11.00
2023-05-05T05:23:58.389Z,10.40
2023-05-05T05:26:21.405Z,12.17
2023-05-05T05:28:43.917Z,11.00
2023-05-05T05:31:05.679Z,11.17
2023-05-05T05:33:27.492Z,12.77
2023-05-05T05:35:50.851Z,12.57
2023-05-05T05:38:15.221Z,13.30
2023-05-05T05:40:37.374Z,12.87
2023-05-05T05:42:59.106Z,13.47
2023-05-05T05:45:23.337Z,12.98
2023-05-05T05:47:45.234Z,13.57
2023-05-05T05:50:07.898Z,14.17
2023-05-05T05:52:30.502Z,13.70
2023-05-05T05:54:52.362Z,13.67
2023-05-05T05:57:14.164Z,13.23
2023-05-05T05:59:36.252Z,13.67
2023-05-05T06:01:59.153Z,14.40
2023-05-05T06:04:21.172Z,14.57
2023-05-05T06:06:43.784Z,15.23
2023-05-05T06:09:05.760Z,14.43
2023-05-05T06:11:28.498Z,14.53
2023-05-05T06:13:50.415Z,14.27
2023-05-05T06:16:12.549Z,14.23
2023-05-05T06:18:38.202Z,14.27
2023-05-05T06:21:00.316Z,15.33
2023-05-05T06:23:24.316Z,15.37
2023-05-05T06:25:51.626Z,15.60
2023-05-05T06:28:13.313Z,16.13
2023-05-05T06:30:35.082Z,15.77
2023-05-05T06:32:58.606Z,15.03
2023-05-05T06:35:22.116Z,15.23
2023-05-05T06:37:44.348Z,16.50
2023-05-05T06:40:07.953Z,16.00
2023-05-05T06:42:30.869Z,15.52
2023-05-05T06:44:53.637Z,15.52
2023-05-05T06:47:16.085Z,15.53
2023-05-05T06:49:37.765Z,15.57
2023-05-05T06:51:59.668Z,15.50
2023-05-05T06:54:21.424Z,15.77
2023-05-05T06:56:43.171Z,14.00
2023-05-05T06:59:04.994Z,14.53
2023-05-05T07:01:26.849Z,15.68
2023-05-05T07:03:48.774Z,14.37
2023-05-05T07:06:11.388Z,13.70
2023-05-05T07:08:33.120Z,13.70
2023-05-05T07:10:55.266Z,14.10
2023-05-05T07:13:17.401Z,14.27
2023-05-05T07:15:46.391Z,14.43
2023-05-05T07:18:08.215Z,14.35
2023-05-05T07:20:30.053Z,14.73
2023-05-05T07:22:51.740Z,13.48
2023-05-05T07:25:13.478Z,13.90
2023-05-05T07:27:37.264Z,13.40
2023-05-05T07:29:59.164Z,13.25
2023-05-05T07:32:21.052Z,13.45
2023-05-05T07:34:42.884Z,14.00
2023-05-05T07:37:05.261Z,14.18
2023-05-05T07:39:27.103Z,12.95
2023-05-05T07:41:49.217Z,12.23
2023-05-05T07:44:11.486Z,11.93
2023-05-05T07:46:33.334Z,11.55
2023-05-05T07:48:55.184Z,9.98
2023-05-05T07:51:17.513Z,9.40
2023-05-05T07:53:41.219Z,9.63
2023-05-05T07:56:03.532Z,9.00
2023-05-05T07:58:25.382Z,8.93
2023-05-05T08:00:47.889Z,7.25
2023-05-05T08:03:11.942Z,7.72
2023-05-05T08:05:33.933Z,7.50
2023-05-05T08:07:55.811Z,8.07
2023-05-05T08:10:17.632Z,6.95
2023-05-05T08:12:40.398Z,6.97
2023-05-05T08:15:02.391Z,7.18
2023-05-05T08:17:26.248Z,6.50
2023-05-05T08:19:52.175Z,6.55
2023-05-05T08:22:14.138Z,5.50
2023-05-05T08:24:36.188Z,6.13
2023-05-05T08:26:57.962Z,6.07
2023-05-05T08:29:19.764Z,6.20
2023-05-05T08:31:41.545Z,5.40
2023-05-05T08:34:05.900Z,4.93
2023-05-05T08:36:29.054Z,5.10
2023-05-05T08:38:51.296Z,6.15
2023-05-05T08:41:17.154Z,5.47
2023-05-05T08:43:39.394Z,6.00
2023-05-05T08:46:01.648Z,4.85
2023-05-05T08:48:28.337Z,4.60
2023-05-05T08:51:00.323Z,6.20
2023-05-05T08:54:02.501Z,4.43
2023-05-05T08:56:33.976Z,3.25
2023-05-05T08:58:57.695Z,3.40
2023-05-05T09:01:21.221Z,3.40
2023-05-05T09:03:44.629Z,3.03
2023-05-05T09:06:07.259Z,2.00
2023-05-05T09:08:29.633Z,3.70
2023-05-05T09:10:52.199Z,3.50
2023-05-05T09:13:18.474Z,5.50
2023-05-05T09:15:42.048Z,4.07
2023-05-05T09:18:09.391Z,4.55
2023-05-05T09:20:37.324Z,3.92
2023-05-05T09:23:11.936Z,3.78
2023-05-05T09:25:33.616Z,4.47
2023-05-05T09:27:55.316Z,4.10
2023-05-05T09:30:29.448Z,4.28
2023-05-05T09:32:54.701Z,2.58
2023-05-05T09:35:19.148Z,3.10
2023-05-05T09:37:41.642Z,2.72
2023-05-05T09:40:03.595Z,3.10
2023-05-05T09:42:25.308Z,3.47
2023-05-05T09:44:48.160Z,3.70
2023-05-05T09:47:21.974Z,3.95
2023-05-05T09:49:44.196Z,3.20
2023-05-05T09:52:16.452Z,3.97
2023-05-05T09:54:38.476Z,3.90
2023-05-05T09:57:00.257Z,3.95
2023-05-05T09:59:23.176Z,3.60
2023-05-05T10:01:44.998Z,3.50
2023-05-05T10:04:06.794Z,3.15
2023-05-05T10:06:48.214Z,3.30
2023-05-05T10:09:10.782Z,3.25
2023-05-05T10:11:34.531Z,2.92
2023-05-05T10:13:56.811Z,2.88
2023-05-05T10:16:20.864Z,2.60
2023-05-05T10:18:46.943Z,3.28
2023-05-05T10:21:10.668Z,2.60
2023-05-05T10:23:41.810Z,2.35
2023-05-05T10:26:08.201Z,2.92
2023-05-05T10:28:54.976Z,2.40
2023-05-05T10:31:30.596Z,2.90
2023-05-05T10:34:10.625Z,2.90
2023-05-05T10:36:34.247Z,3.55
2023-05-05T10:38:57.814Z,3.43
2023-05-05T10:41:21.382Z,3.60
2023-05-05T10:43:43.878Z,3.95
2023-05-05T10:46:06.784Z,4.05
2023-05-05T10:48:39.838Z,3.92
2023-05-05T10:51:39.920Z,3.05
2023-05-05T10:54:20.736Z,3.30
2023-05-05T10:56:43.524Z,2.90
2023-05-05T10:59:37.138Z,3.15
2023-05-05T11:01:58.902Z,3.22
2023-05-05T11:04:23.336Z,3.60
2023-05-05T11:09:32.322Z,4.30
2023-05-05T11:12:07.133Z,4.25
2023-05-05T11:16:51.109Z,3.95
2023-05-05T11:19:43.957Z,2.92
2023-05-05T11:22:05.664Z,2.63
2023-05-05T11:24:31.292Z,3.00
2023-05-05T11:26:53.109Z,2.92
2023-05-05T11:29:14.779Z,3.83
2023-05-05T11:31:36.679Z,4.72
2023-05-05T11:34:29.072Z,4.22
2023-05-05T11:36:53.756Z,3.42
2023-05-05T11:39:54.330Z,3.75
2023-05-05T11:42:27.261Z,2.60
2023-05-05T11:44:49.665Z,2.07
2023-05-05T11:47:11.324Z,1.77
2023-05-05T11:49:34.924Z,1.20
2023-05-05T11:51:58.214Z,1.52
2023-05-05T11:54:21.558Z,1.23
2023-05-05T11:56:52.131Z,1.27
2023-05-05T11:59:13.845Z,1.70
2023-05-05T12:01:41.503Z,1.80
2023-05-05T12:04:04.199Z,1.40
2023-05-05T12:06:26.857Z,1.23
2023-05-05T12:08:48.536Z,1.40
2023-05-05T12:11:11.616Z,1.47
2023-05-05T12:13:33.408Z,1.40
2023-05-05T12:15:55.081Z,1.50
2023-05-05T12:18:20.843Z,1.20
2023-05-05T12:20:42.595Z,1.73
2023-05-05T12:23:04.778Z,1.10
2023-05-05T12:25:36.872Z,1.53
2023-05-05T12:27:58.673Z,1.60
2023-05-05T12:30:21.754Z,1.30
2023-05-05T12:32:45.068Z,1.30
2023-05-05T12:35:09.861Z,2.00
2023-05-05T12:37:32.465Z,1.58
2023-05-05T12:39:57.172Z,1.57
2023-05-05T12:44:43.703Z,1.60
2023-05-05T12:47:07.018Z,1.60
2023-05-05T12:49:29.191Z,2.10
2023-05-05T12:51:56.532Z,2.20
2023-05-05T12:54:19.464Z,2.20
2023-05-05T12:56:50.713Z,1.83
2023-05-05T12:59:30.157Z,2.10
2023-05-05T13:01:54.273Z,2.10
2023-05-05T13:04:17.391Z,2.15
2023-05-05T13:06:44.999Z,1.90
2023-05-05T13:09:09.997Z,1.93
2023-05-05T13:11:39.813Z,2.30
2023-05-05T13:14:01.977Z,2.53
2023-05-05T13:16:24.224Z,2.37
2023-05-05T13:18:50.461Z,2.80
2023-05-05T13:21:12.889Z,3.20
2023-05-05T13:23:34.679Z,2.57
2023-05-05T13:25:56.966Z,2.70
2023-05-05T13:28:18.664Z,2.70
2023-05-05T13:30:42.806Z,2.60
2023-05-05T13:33:05.111Z,2.95
2023-05-05T13:35:27.311Z,3.03
2023-05-05T13:37:49.094Z,2.80
2023-05-05T13:40:13.454Z,3.43
2023-05-05T13:42:35.180Z,3.45
2023-05-05T13:44:56.922Z,3.83
2023-05-05T13:47:18.742Z,3.87
2023-05-05T13:49:40.651Z,3.70
2023-05-05T13:52:02.839Z,3.77
2023-05-05T13:54:24.576Z,3.40
2023-05-05T13:56:46.668Z,4.00
2023-05-05T13:59:09.303Z,3.57
2023-05-05T14:01:31.284Z,3.93
2023-05-05T14:03:54.458Z,4.20
2023-05-05T14:06:18.317Z,4.17
2023-05-05T14:08:40.289Z,3.67
2023-05-05T14:11:03.190Z,4.07
2023-05-05T14:13:25.141Z,3.40
2023-05-05T14:15:47.311Z,4.13
2023-05-05T14:18:09.657Z,4.13
2023-05-05T14:20:31.755Z,4.20
2023-05-05T14:22:54.729Z,4.00
2023-05-05T14:25:16.681Z,3.50
2023-05-05T14:27:40.386Z,3.67
2023-05-05T14:30:04.182Z,3.67
2023-05-05T14:32:26.755Z,2.77
2023-05-05T14:34:50.431Z,2.60
2023-05-05T14:37:12.682Z,1.90
2023-05-05T14:39:35.822Z,1.80
2023-05-05T14:41:58.229Z,1.87
2023-05-05T14:44:20.376Z,1.40
2023-05-05T14:46:44.677Z,1.70
2023-05-05T14:49:07.592Z,1.40
2023-05-05T14:51:29.703Z,1.40
2023-05-05T14:53:51.517Z,1.20
2023-05-05T14:56:14.245Z,1.30
2023-05-05T14:58:36.240Z,1.50
2023-05-05T15:00:58.161Z,1.00
2023-05-05T15:03:20.667Z,1.30
2023-05-05T15:05:42.705Z,1.43
2023-05-05T15:08:04.800Z,1.30
2023-05-05T15:10:26.601Z,1.30
2023-05-05T15:12:48.772Z,1.20
2023-05-05T15:15:11.433Z,1.17
2023-05-05T15:17:33.415Z,1.10
2023-05-05T15:19:55.152Z,1.53
2023-05-05T15:22:16.922Z,1.33
2023-05-05T15:24:38.999Z,1.30
2023-05-05T15:27:00.787Z,0.70
2023-05-05T15:29:22.782Z,1.10
2023-05-05T15:31:45.653Z,1.40
2023-05-05T15:34:07.587Z,1.60
2023-05-05T15:36:29.234Z,1.63
2023-05-05T15:38:51.042Z,1.80
2023-05-05T15:41:12.928Z,2.00
2023-05-05T15:43:35.158Z,1.50
2023-05-05T15:45:57.362Z,1.40
2023-05-05T15:48:19.115Z,1.30
2023-05-05T15:50:41.575Z,1.50
2023-05-05T15:53:03.278Z,1.00
2023-05-05T15:55:25.634Z,1.37
2023-05-05T15:57:47.361Z,1.40
2023-05-05T16:00:10.322Z,1.30
2023-05-05T16:02:32.590Z,1.33
2023-05-05T16:04:55.076Z,1.20
2023-05-05T16:07:18.594Z,1.50
2023-05-05T16:09:40.295Z,1.70
2023-05-05T16:12:02.830Z,1.77
2023-05-05T16:14:25.045Z,1.40
2023-05-05T16:16:46.971Z,1.50
2023-05-05T16:19:09.149Z,1.30
2023-05-05T16:21:31.717Z,1.53
2023-05-05T16:23:54.267Z,1.60
2023-05-05T16:26:16.781Z,1.93
2023-05-05T16:28:38.808Z,1.70
2023-05-05T16:31:02.508Z,1.77
2023-05-05T16:33:24.713Z,1.90
2023-05-05T16:35:47.996Z,1.50
2023-05-05T16:38:10.595Z,1.40
2023-05-05T16:40:33.229Z,1.53
2023-05-05T16:42:56.627Z,1.50
2023-05-05T16:45:18.626Z,1.30
2023-05-05T16:47:40.971Z,0.87
2023-05-05T16:50:04.593Z,1.30
2023-05-05T16:52:26.964Z,1.00
2023-05-05T16:54:55.660Z,1.50
2023-05-05T16:57:18.227Z,1.40
2023-05-05T16:59:42.298Z,1.40
2023-05-05T17:04:27.825Z,1.07
2023-05-05T17:06:49.892Z,1.10
2023-05-05T17:09:12.596Z,1.37
2023-05-05T17:11:36.371Z,2.00
2023-05-05T17:13:58.670Z,1.58
2023-05-05T17:16:20.810Z,1.40
2023-05-05T17:18:42.904Z,1.70
2023-05-05T17:21:05.143Z,1.70
2023-05-05T17:23:27.231Z,1.73
2023-05-05T17:25:49.039Z,1.53
2023-05-05T17:28:10.972Z,1.57
2023-05-05T17:30:32.950Z,1.87
2023-05-05T17:32:55.271Z,2.00
2023-05-05T17:35:17.298Z,1.90
2023-05-05T17:37:39.325Z,2.47
2023-05-05T17:40:01.092Z,2.40
2023-05-05T17:42:23.095Z,2.07
2023-05-05T17:44:47.003Z,3.20
2023-05-05T17:47:10.675Z,2.70
2023-05-05T17:49:32.720Z,2.50
2023-05-05T17:51:54.882Z,2.10
2023-05-05T17:54:16.905Z,2.10
2023-05-05T17:56:38.996Z,2.40
2023-05-05T17:59:01.207Z,2.30
2023-05-05T18:01:24.745Z,2.33
2023-05-05T18:03:47.253Z,3.50
2023-05-05T18:06:09.090Z,2.93
2023-05-05T18:08:30.973Z,3.10
2023-05-05T18:10:54.326Z,2.53
2023-05-05T18:13:16.651Z,2.50
2023-05-05T18:15:40.062Z,2.50
2023-05-05T18:18:01.905Z,2.60
2023-05-05T18:20:23.657Z,2.60
2023-05-05T18:22:46.710Z,2.57
2023-05-05T18:25:09.485Z,3.00
2023-05-05T18:27:32.609Z,2.43
2023-05-05T18:29:55.730Z,2.47
2023-05-05T18:32:18.462Z,2.47
2023-05-05T18:34:41.597Z,2.80
2023-05-05T18:37:03.382Z,2.33
2023-05-05T18:39:25.781Z,2.90
2023-05-05T18:41:47.652Z,3.00
2023-05-05T18:44:10.467Z,2.97
2023-05-05T18:46:32.776Z,2.80
2023-05-05T18:48:54.965Z,2.80
2023-05-05T18:51:17.201Z,3.10
2023-05-05T18:53:40.373Z,2.73
2023-05-05T18:56:02.120Z,2.90
2023-05-05T18:58:24.440Z,2.90
2023-05-05T19:00:46.520Z,3.03
2023-05-05T19:03:08.207Z,3.23
2023-05-05T19:05:30.018Z,3.20
2023-05-05T19:07:51.763Z,3.03
2023-05-05T19:10:13.752Z,2.73
2023-05-05T19:12:35.796Z,2.90
2023-05-05T19:14:57.633Z,3.77
2023-05-05T19:17:19.373Z,3.70
2023-05-05T19:19:41.269Z,3.27
2023-05-05T19:22:03.687Z,3.10
2023-05-05T19:24:25.480Z,3.20
2023-05-05T19:26:47.154Z,3.30
2023-05-05T19:29:08.920Z,3.53
2023-05-05T19:31:31.315Z,3.40
2023-05-05T19:34:05.287Z,3.40
2023-05-05T19:36:27.870Z,3.67
2023-05-05T19:38:49.951Z,4.03
2023-05-05T19:41:12.178Z,4.70
2023-05-05T19:43:34.185Z,4.73
2023-05-05T19:45:56.250Z,4.97
2023-05-05T19:48:17.878Z,4.70
2023-05-05T19:50:39.568Z,4.53
2023-05-05T19:53:02.854Z,4.70
2023-05-05T19:55:24.752Z,4.53
2023-05-05T19:57:46.528Z,5.10
2023-05-05T20:00:10.482Z,4.70
2023-05-05T20:02:34.675Z,4.75
2023-05-05T20:04:58.138Z,4.67
2023-05-05T20:07:19.862Z,4.87
2023-05-05T20:09:41.487Z,5.27
2023-05-05T20:12:03.554Z,5.33
2023-05-05T20:14:25.685Z,5.50
2023-05-05T20:16:47.982Z,5.83
2023-05-05T20:19:10.051Z,5.60
2023-05-05T20:21:33.731Z,5.90
2023-05-05T20:23:55.797Z,5.00
2023-05-05T20:26:17.855Z,4.70
2023-05-05T20:28:43.239Z,4.97
2023-05-05T20:31:07.730Z,5.13
2023-05-05T20:33:29.527Z,4.70
2023-05-05T20:35:51.537Z,4.17
2023-05-05T20:38:14.224Z,4.50
2023-05-05T20:40:37.091Z,5.10
2023-05-05T20:42:59.884Z,4.43
2023-05-05T20:45:21.762Z,4.80
2023-05-05T20:47:43.731Z,4.57
2023-05-05T20:50:07.574Z,4.70
2023-05-05T20:52:29.374Z,4.83
2023-05-05T20:54:51.193Z,4.80
2023-05-05T20:57:13.792Z,5.67
2023-05-05T20:59:36.874Z,6.23
2023-05-05T21:01:58.707Z,6.80
2023-05-05T21:04:22.016Z,6.83
2023-05-05T21:06:43.858Z,7.47
2023-05-05T21:09:05.607Z,6.50
2023-05-05T21:11:27.382Z,5.57
2023-05-05T21:13:49.284Z,4.33
2023-05-05T21:16:11.894Z,4.90
2023-05-05T21:18:33.634Z,4.73
2023-05-05T21:20:56.237Z,4.97
2023-05-05T21:23:17.992Z,5.17
2023-05-05T21:25:39.820Z,5.00
2023-05-05T21:28:01.842Z,6.07
2023-05-05T21:30:24.101Z,6.33
2023-05-05T21:32:45.995Z,6.87
2023-05-05T21:35:09.300Z,7.20
2023-05-05T21:37:31.314Z,7.60
2023-05-05T21:39:53.177Z,7.80
2023-05-05T21:42:15.179Z,8.07
2023-05-05T21:44:36.969Z,7.50
2023-05-05T21:46:58.977Z,6.57
2023-05-05T21:49:22.480Z,6.07
2023-05-05T21:51:45.788Z,9.90
2023-05-05T21:54:07.614Z,10.40
2023-05-05T21:56:29.531Z,9.33
2023-05-05T21:58:51.808Z,6.83
2023-05-05T22:01:14.542Z,5.33
2023-05-05T22:03:36.791Z,5.10
2023-05-05T22:05:58.822Z,5.60
2023-05-05T22:08:20.703Z,6.83
2023-05-05T22:10:42.992Z,6.77
2023-05-05T22:13:05.006Z,6.53
2023-05-05T22:15:32.606Z,6.27
2023-05-05T22:17:55.236Z,5.43
2023-05-05T22:20:17.198Z,5.57
2023-05-05T22:22:39.195Z,6.00
2023-05-05T22:25:01.104Z,5.83
2023-05-05T22:27:23.215Z,8.13
2023-05-05T22:29:44.914Z,7.23
2023-05-05T22:32:06.665Z,7.67
2023-05-05T22:34:28.318Z,7.53
2023-05-05T22:36:50.109Z,8.37
2023-05-05T22:39:11.901Z,7.43
2023-05-05T22:41:33.615Z,7.43
2023-05-05T22:43:56.300Z,6.80
2023-05-05T22:46:18.082Z,7.53
2023-05-05T22:48:39.793Z,7.67
2023-05-05T22:51:01.593Z,7.57
2023-05-05T22:53:24.227Z,9.07
2023-05-05T22:55:46.057Z,9.60
2023-05-05T22:58:07.946Z,9.03
2023-05-05T23:00:30.728Z,9.17
2023-05-05T23:02:52.621Z,9.77
2023-05-05T23:05:14.329Z,9.90
2023-05-05T23:07:36.118Z,9.60
2023-05-05T23:09:57.758Z,10.30
2023-05-05T23:12:19.439Z,10.27
2023-05-05T23:14:41.988Z,11.00
2023-05-05T23:17:03.811Z,10.53
2023-05-05T23:19:26.263Z,11.30
2023-05-05T23:21:53.318Z,10.77
2023-05-05T23:24:15.590Z,10.30
2023-05-05T23:26:37.251Z,10.53
2023-05-05T23:28:58.911Z,9.93
2023-05-05T23:31:20.640Z,10.03
2023-05-05T23:33:42.337Z,9.60
2023-05-05T23:36:04.597Z,9.60
2023-05-05T23:38:26.282Z,9.10
2023-05-05T23:40:48.009Z,8.67
2023-05-05T23:43:09.746Z,8.40
2023-05-05T23:45:31.465Z,9.03
2023-05-05T23:47:53.647Z,10.50
2023-05-05T23:50:15.660Z,9.73
2023-05-05T23:52:37.383Z,8.17
2023-05-05T23:54:59.048Z,9.60
2023-05-05T23:57:20.723Z,9.20
2023-05-05T23:59:42.427Z,10.03
